createdAt,value
2022-09-05T00:02:15.234Z,97515.91
2022-09-05T00:06:16.596Z,97521.31
2022-09-05T00:10:37.294Z,97530.97
2022-09-05T00:15:31.198Z,97511.66
2022-09-05T00:24:22.526Z,97512.19
2022-09-05T00:24:42.327Z,97534.72
2022-09-05T00:28:52.970Z,97528.31
2022-09-05T00:33:32.255Z,97529.38
2022-09-05T00:37:45.446Z,97539.06
2022-09-05T00:41:43.001Z,97523.47
2022-09-05T00:45:58.656Z,97532.03
2022-09-05T00:50:03.301Z,97512.44
2022-09-05T00:54:24.829Z,97534.22
2022-09-05T00:59:04.215Z,97537.41
2022-09-05T01:03:35.400Z,97526.69
2022-09-05T01:07:51.342Z,97541.72
2022-09-05T01:12:27.155Z,97488.00
2022-09-05T01:16:45.355Z,97543.22
2022-09-05T01:21:00.473Z,97547.22
2022-09-05T01:25:20.108Z,97552.28
2022-09-05T01:29:53.438Z,97530.28
2022-09-05T01:34:39.717Z,97539.97
2022-09-05T01:40:12.034Z,97529.72
2022-09-05T01:44:09.535Z,97487.31
2022-09-05T01:48:23.679Z,97518.97
2022-09-05T01:53:10.816Z,97547.44
2022-09-05T01:57:24.370Z,97526.00
2022-09-05T02:02:18.943Z,97542.69
2022-09-05T02:06:39.186Z,97547.44
2022-09-05T02:11:01.595Z,97520.59
2022-09-05T02:15:10.109Z,97537.75
2022-09-05T02:19:09.560Z,97548.47
2022-09-05T02:23:40.408Z,97533.44
2022-09-05T02:28:04.875Z,97524.75
2022-09-05T02:32:29.680Z,97551.88
2022-09-05T02:36:48.757Z,97545.16
2022-09-05T02:45:21.234Z,97506.44
2022-09-05T02:45:27.259Z,97544.06
2022-09-05T02:52:21.204Z,97541.94
2022-09-05T02:57:33.580Z,97532.22
2022-09-05T02:59:09.030Z,97541.34
2022-09-05T03:03:29.106Z,97543.75
2022-09-05T03:08:00.024Z,97537.63
2022-09-05T03:12:59.688Z,97550.75
2022-09-05T03:17:44.380Z,97536.72
2022-09-05T03:22:18.910Z,97543.22
2022-09-05T03:26:56.047Z,97528.16
2022-09-05T03:31:06.661Z,97544.53
2022-09-05T03:35:43.650Z,97533.78
2022-09-05T03:40:29.045Z,97535.06
2022-09-05T03:45:12.057Z,97542.34
2022-09-05T03:52:15.205Z,97550.81
2022-09-05T03:57:15.712Z,97544.94
2022-09-05T03:59:22.912Z,97551.84
2022-09-05T04:08:06.107Z,97550.72
2022-09-05T04:08:32.521Z,97502.22
2022-09-05T04:12:47.688Z,97547.97
2022-09-05T04:17:00.543Z,97531.25
2022-09-05T04:21:12.884Z,97538.19
2022-09-05T04:25:31.454Z,97535.50
2022-09-05T04:29:48.860Z,97545.09
2022-09-05T04:34:09.154Z,97549.88
2022-09-05T04:38:15.254Z,97540.72
2022-09-05T04:42:23.029Z,97530.97
2022-09-05T04:46:48.852Z,97518.53
2022-09-05T04:51:08.498Z,97533.59
2022-09-05T04:55:33.085Z,97534.53
2022-09-05T05:03:29.933Z,97565.00
2022-09-05T05:06:16.110Z,97560.75
2022-09-05T05:08:54.613Z,97552.00
2022-09-05T05:17:58.023Z,97521.09
2022-09-05T05:18:38.632Z,97534.56
2022-09-05T05:22:18.434Z,97555.94
2022-09-05T05:26:41.150Z,97559.38
2022-09-05T05:30:40.456Z,97571.47
2022-09-05T05:34:47.317Z,97535.47
2022-09-05T05:39:02.854Z,97558.66
2022-09-05T05:43:26.518Z,97560.28
2022-09-05T05:47:37.059Z,97581.03
2022-09-05T05:52:02.521Z,97554.13
2022-09-05T05:56:41.593Z,97567.88
2022-09-05T06:01:00.368Z,97591.22
2022-09-05T06:05:50.384Z,97599.91
2022-09-05T06:14:52.224Z,97605.47
2022-09-05T06:15:12.281Z,97599.97
2022-09-05T06:20:39.229Z,97602.41
2022-09-05T06:24:58.504Z,97599.75
2022-09-05T06:29:48.330Z,97598.16
2022-09-05T06:33:57.559Z,97607.03
2022-09-05T06:38:30.238Z,97611.06
2022-09-05T06:42:49.190Z,97617.53
2022-09-05T06:47:07.776Z,97610.00
2022-09-05T06:51:30.712Z,97614.78
2022-09-05T06:56:08.630Z,97615.03
2022-09-05T07:00:22.520Z,97607.63
2022-09-05T07:05:24.540Z,97624.59
2022-09-05T07:09:22.161Z,97618.72
2022-09-05T07:13:42.194Z,97620.78
2022-09-05T07:18:13.199Z,97619.59
2022-09-05T07:22:48.410Z,97617.97
2022-09-05T07:26:53.820Z,97624.00
2022-09-05T07:31:00.980Z,97592.69
2022-09-05T07:35:03.246Z,97619.56
2022-09-05T07:39:27.781Z,97574.66
2022-09-05T07:43:32.438Z,97624.25
2022-09-05T07:48:00.216Z,97609.28
2022-09-05T07:56:53.780Z,97631.50
2022-09-05T08:01:14.684Z,97605.03
2022-09-05T08:05:18.917Z,97618.84
2022-09-05T08:10:05.940Z,97611.78
2022-09-05T08:14:43.967Z,97615.56
2022-09-05T08:19:01.140Z,97608.31
2022-09-05T08:23:33.716Z,97577.91
2022-09-05T08:28:11.638Z,97575.16
2022-09-05T08:32:35.358Z,97602.88
2022-09-05T08:36:41.762Z,97598.88
2022-09-05T08:41:06.486Z,97590.72
2022-09-05T08:46:48.546Z,97599.91
2022-09-05T08:50:26.937Z,97596.69
2022-09-05T08:54:40.833Z,97548.84
2022-09-05T08:58:46.317Z,97581.66
2022-09-05T09:03:13.186Z,97585.16
2022-09-05T09:07:51.119Z,97578.34
2022-09-05T09:12:10.779Z,97573.31
2022-09-05T09:16:34.132Z,97569.94
2022-09-05T09:20:56.875Z,97571.88
2022-09-05T09:25:16.063Z,97549.59
2022-09-05T09:29:18.955Z,97567.00
2022-09-05T09:33:32.593Z,97559.84
2022-09-05T09:38:28.347Z,97561.06
2022-09-05T09:42:40.325Z,97564.41
2022-09-05T09:46:49.830Z,97547.75
2022-09-05T09:51:13.944Z,97564.41
2022-09-05T09:55:52.193Z,97544.31
2022-09-05T10:00:15.781Z,97556.78
2022-09-05T10:10:38.534Z,97554.44
2022-09-05T10:10:46.526Z,97548.28
2022-09-05T10:14:30.684Z,97544.81
2022-09-05T10:20:07.869Z,97541.19
2022-09-05T10:24:39.146Z,97540.38
2022-09-05T10:29:11.741Z,97540.03
2022-09-05T10:35:23.266Z,97516.97
2022-09-05T10:38:11.562Z,97530.66
2022-09-05T10:42:43.369Z,97504.50
2022-09-05T10:47:17.068Z,97522.59
2022-09-05T10:51:26.974Z,97500.72
2022-09-05T10:56:14.362Z,97504.34
2022-09-05T11:02:26.863Z,97493.66
2022-09-05T11:05:37.589Z,97486.41
2022-09-05T11:10:08.494Z,97492.81
2022-09-05T11:14:26.560Z,97483.72
2022-09-05T11:18:55.964Z,97460.94
2022-09-05T11:23:04.922Z,97469.66
2022-09-05T11:27:26.225Z,97471.47
2022-09-05T11:31:52.482Z,97488.22
2022-09-05T11:39:52.236Z,97473.94
2022-09-05T11:41:23.847Z,97474.31
2022-09-05T11:45:52.234Z,97459.72
2022-09-05T11:50:22.191Z,97460.59
2022-09-05T11:55:05.428Z,97448.50
2022-09-05T11:59:44.901Z,97448.97
2022-09-05T12:04:00.247Z,97452.47
2022-09-05T12:08:44.132Z,97451.47
2022-09-05T12:13:29.303Z,97441.72
2022-09-05T12:17:49.558Z,97408.84
2022-09-05T12:22:28.538Z,97453.03
2022-09-05T12:27:40.469Z,97429.97
2022-09-05T12:32:59.485Z,97411.66
2022-09-05T12:39:52.163Z,97429.47
2022-09-05T12:41:38.190Z,97436.34
2022-09-05T12:45:36.454Z,97434.16
2022-09-05T12:49:52.258Z,97429.31
2022-09-05T12:54:09.382Z,97415.53
2022-09-05T13:03:01.267Z,97391.25
2022-09-05T13:03:28.790Z,97421.91
2022-09-05T13:07:42.936Z,97392.75
2022-09-05T13:14:54.910Z,97390.25
2022-09-05T13:16:39.807Z,97375.72
2022-09-05T13:20:45.745Z,97391.31
2022-09-05T13:24:53.451Z,97392.00
2022-09-05T13:29:09.824Z,97377.53
2022-09-05T13:37:55.157Z,97364.81
2022-09-05T13:38:20.787Z,97364.94
2022-09-05T13:42:10.440Z,97347.13
2022-09-05T13:46:26.329Z,97360.44
2022-09-05T13:50:30.956Z,97331.88
2022-09-05T13:55:09.489Z,97351.59
2022-09-05T13:59:15.065Z,97338.94
2022-09-05T14:03:40.221Z,97340.88
2022-09-05T14:08:19.683Z,97333.78
2022-09-05T14:12:37.258Z,97337.72
2022-09-05T14:16:53.576Z,97329.41
2022-09-05T14:21:15.990Z,97310.63
2022-09-05T14:25:24.767Z,97327.41
2022-09-05T14:29:33.200Z,97303.75
2022-09-05T14:37:55.498Z,97300.97
2022-09-05T14:38:19.124Z,97298.28
2022-09-05T14:42:35.374Z,97313.97
2022-09-05T14:46:54.054Z,97299.34
2022-09-05T14:51:25.751Z,97304.66
2022-09-05T14:55:23.283Z,97297.66
2022-09-05T15:02:53.743Z,97294.56
2022-09-05T15:10:23.937Z,97297.00
2022-09-05T15:13:02.619Z,97269.38
2022-09-05T15:17:05.732Z,97279.25
2022-09-05T15:21:41.326Z,97287.53
2022-09-05T15:25:51.346Z,97264.94
2022-09-05T15:29:56.129Z,97280.34
2022-09-05T15:33:54.686Z,97270.16
2022-09-05T15:37:51.685Z,97259.09
2022-09-05T15:41:49.150Z,97249.63
2022-09-05T15:45:50.113Z,97263.34
2022-09-05T15:49:53.207Z,97274.31
2022-09-05T15:53:56.400Z,97258.41
2022-09-05T15:58:04.793Z,97258.84
2022-09-05T16:02:12.278Z,97255.66
2022-09-05T16:10:33.452Z,97258.50
2022-09-05T16:11:07.022Z,97241.41
2022-09-05T16:15:35.862Z,97256.44
2022-09-05T16:23:31.186Z,97251.56
2022-09-05T16:24:11.295Z,97245.44
2022-09-05T16:28:36.523Z,97234.63
2022-09-05T16:32:41.430Z,97238.53
2022-09-05T16:37:08.952Z,97237.00
2022-09-05T16:41:24.310Z,97235.31
2022-09-05T16:45:24.990Z,97232.22
2022-09-05T16:49:42.023Z,97185.69
2022-09-05T16:53:50.814Z,97212.50
2022-09-05T16:58:14.627Z,97207.28
2022-09-05T17:02:30.408Z,97219.03
2022-09-05T17:06:55.994Z,97231.72
2022-09-05T17:11:13.811Z,97220.28
2022-09-05T17:15:38.311Z,97227.66
2022-09-05T17:20:06.282Z,97228.75
2022-09-05T17:29:20.804Z,97228.63
2022-09-05T17:29:47.278Z,97227.53
2022-09-05T17:33:29.888Z,97238.88
2022-09-05T17:38:11.198Z,97237.03
2022-09-05T17:42:41.528Z,97241.78
2022-09-05T17:47:10.345Z,97212.25
2022-09-05T17:51:18.537Z,97247.28
2022-09-05T17:55:18.430Z,97234.75
2022-09-05T17:59:21.386Z,97249.66
2022-09-05T18:03:37.161Z,97245.06
2022-09-05T18:07:34.816Z,97217.50
2022-09-05T18:12:02.860Z,97249.06
2022-09-05T18:15:59.845Z,97262.41
2022-09-05T18:20:10.040Z,97246.81
2022-09-05T18:24:15.835Z,97262.88
2022-09-05T18:28:34.624Z,97269.31
2022-09-05T18:33:55.057Z,97269.13
2022-09-05T18:37:36.273Z,97272.97
2022-09-05T18:41:38.494Z,97248.78
2022-09-05T18:45:38.245Z,97261.59
2022-09-05T18:50:25.377Z,97266.94
2022-09-05T18:54:20.234Z,97275.47
2022-09-05T18:58:27.385Z,97266.72
2022-09-05T19:02:58.665Z,97280.31
2022-09-05T19:07:09.184Z,97261.84
2022-09-05T19:11:25.336Z,97270.75
2022-09-05T19:15:31.222Z,97251.34
2022-09-05T19:19:31.425Z,97278.53
2022-09-05T19:23:34.733Z,97258.75
2022-09-05T19:30:40.706Z,97263.41
2022-09-05T19:36:49.414Z,97273.59
2022-09-05T19:37:02.249Z,97275.84
2022-09-05T19:47:29.479Z,97249.63
2022-09-05T19:47:38.548Z,97276.97
2022-09-05T19:49:24.478Z,97264.53
2022-09-05T19:53:22.537Z,97246.22
2022-09-05T19:57:21.112Z,97275.53
2022-09-05T20:01:23.072Z,97278.50
2022-09-05T20:05:22.918Z,97264.47
2022-09-05T20:09:23.988Z,97283.25
2022-09-05T20:13:25.452Z,97277.44
2022-09-05T20:17:32.287Z,97283.75
2022-09-05T20:21:33.925Z,97264.16
2022-09-05T20:25:43.752Z,97283.94
2022-09-05T20:30:00.216Z,97284.78
2022-09-05T20:33:58.757Z,97262.22
2022-09-05T20:43:09.123Z,97276.16
2022-09-05T20:43:31.792Z,97279.59
2022-09-05T20:48:58.786Z,97250.13
2022-09-05T20:54:23.017Z,97252.53
2022-09-05T20:55:46.279Z,97253.94
2022-09-05T20:59:47.232Z,97275.56
2022-09-05T21:04:06.614Z,97242.75
2022-09-05T21:08:32.799Z,97266.88
2022-09-05T21:12:45.553Z,97272.59
2022-09-05T21:16:56.030Z,97270.56
2022-09-05T21:20:57.401Z,97272.47
2022-09-05T21:25:16.314Z,97283.59
2022-09-05T21:29:13.242Z,97282.78
2022-09-05T21:33:21.629Z,97287.97
2022-09-05T21:37:25.643Z,97278.97
2022-09-05T21:41:22.647Z,97300.09
2022-09-05T21:47:41.524Z,97293.59
2022-09-05T21:49:38.796Z,97271.44
2022-09-05T21:58:37.605Z,97244.75
2022-09-05T21:59:20.184Z,97279.81
2022-09-05T22:02:23.341Z,97300.41
2022-09-05T22:06:20.583Z,97282.09
2022-09-05T22:10:17.590Z,97270.41
2022-09-05T22:14:14.564Z,97273.28
2022-09-05T22:18:17.566Z,97296.53
2022-09-05T22:22:24.452Z,97264.81
2022-09-05T22:26:21.976Z,97271.31
2022-09-05T22:30:19.070Z,97294.47
2022-09-05T22:34:16.563Z,97231.59
2022-09-05T22:38:19.302Z,97275.91
2022-09-05T22:42:17.100Z,97245.72
2022-09-05T22:46:14.775Z,97267.50
2022-09-05T22:50:11.768Z,97266.09
2022-09-05T22:54:08.731Z,97277.19
2022-09-05T22:58:10.116Z,97277.25
2022-09-05T23:02:07.179Z,97271.25
2022-09-05T23:06:10.627Z,97286.56
2022-09-05T23:10:07.953Z,97249.59
2022-09-05T23:14:05.014Z,97238.50
2022-09-05T23:18:03.558Z,97261.06
2022-09-05T23:22:00.594Z,97277.28
2022-09-05T23:26:11.499Z,97276.47
2022-09-05T23:30:09.643Z,97276.72
2022-09-05T23:34:06.658Z,97264.94
2022-09-05T23:38:09.183Z,97262.75
2022-09-05T23:42:06.471Z,97236.50
2022-09-05T23:46:05.663Z,97260.69
2022-09-05T23:50:04.142Z,97258.00
2022-09-05T23:54:01.265Z,97241.25
2022-09-05T23:57:58.945Z,97250.16
